createdAt,value
2019-03-22T00:01:02.165Z,35.93
2019-03-22T00:03:30.842Z,37.07
2019-03-22T00:05:59.388Z,37.73
2019-03-22T00:08:27.856Z,37.13
2019-03-22T00:10:56.460Z,36.20
2019-03-22T00:13:24.980Z,38.03
2019-03-22T00:15:53.525Z,36.73
2019-03-22T00:18:22.122Z,37.73
2019-03-22T00:20:50.672Z,35.23
2019-03-22T00:23:19.208Z,37.23
2019-03-22T00:25:47.853Z,37.53
2019-03-22T00:28:16.616Z,37.10
2019-03-22T00:30:45.158Z,36.70
2019-03-22T00:33:13.757Z,36.20
2019-03-22T00:35:42.302Z,36.87
2019-03-22T00:38:10.841Z,36.47
2019-03-22T00:40:39.347Z,40.47
2019-03-22T00:43:07.889Z,38.13
2019-03-22T00:45:36.502Z,37.13
2019-03-22T00:48:05.067Z,39.07
2019-03-22T00:50:33.607Z,37.60
2019-03-22T00:53:02.149Z,37.37
2019-03-22T00:55:30.729Z,39.27
2019-03-22T00:57:59.351Z,37.10
2019-03-22T01:00:27.960Z,38.40
2019-03-22T01:02:56.533Z,38.70
2019-03-22T01:05:25.082Z,39.20
2019-03-22T01:07:53.629Z,37.63
2019-03-22T01:10:22.201Z,38.23
2019-03-22T01:12:50.885Z,36.97
2019-03-22T01:15:19.498Z,36.43
2019-03-22T01:17:48.141Z,37.20
2019-03-22T01:20:16.757Z,36.10
2019-03-22T01:22:45.308Z,41.73
2019-03-22T01:25:14.024Z,35.90
2019-03-22T01:27:42.567Z,37.90
2019-03-22T01:30:16.332Z,37.93
2019-03-22T01:32:44.966Z,42.00
2019-03-22T01:35:13.675Z,41.70
2019-03-22T01:37:42.214Z,43.00
2019-03-22T01:40:12.334Z,43.37
2019-03-22T01:42:40.809Z,41.87
2019-03-22T01:45:12.497Z,42.03
2019-03-22T01:47:41.152Z,44.33
2019-03-22T01:50:12.711Z,43.00
2019-03-22T01:52:41.327Z,42.63
2019-03-22T01:55:10.737Z,41.90
2019-03-22T01:57:39.288Z,44.27
2019-03-22T02:00:11.270Z,41.83
2019-03-22T02:02:39.991Z,43.47
2019-03-22T02:05:08.881Z,43.03
2019-03-22T02:07:37.420Z,42.17
2019-03-22T02:10:08.562Z,41.60
2019-03-22T02:12:37.171Z,43.47
2019-03-22T02:15:08.789Z,42.67
2019-03-22T02:17:37.292Z,43.03
2019-03-22T02:20:07.377Z,45.00
2019-03-22T02:22:35.918Z,47.23
2019-03-22T02:25:06.250Z,44.57
2019-03-22T02:27:34.929Z,46.17
2019-03-22T02:30:04.646Z,43.47
2019-03-22T02:32:34.111Z,42.50
2019-03-22T02:35:02.649Z,41.90
2019-03-22T02:37:31.122Z,42.97
2019-03-22T02:39:59.637Z,41.70
2019-03-22T02:42:28.191Z,43.57
2019-03-22T02:44:56.809Z,42.73
2019-03-22T02:47:25.436Z,43.27
2019-03-22T02:49:54.051Z,43.27
2019-03-22T02:52:22.699Z,47.80
2019-03-22T02:54:51.248Z,46.90
2019-03-22T02:57:19.790Z,45.63
2019-03-22T02:59:48.452Z,44.60
2019-03-22T03:02:17.051Z,45.97
2019-03-22T03:04:45.673Z,44.20
2019-03-22T03:07:14.315Z,44.57
2019-03-22T03:09:42.869Z,44.70
2019-03-22T03:12:11.408Z,45.53
2019-03-22T03:14:39.987Z,45.47
2019-03-22T03:17:08.530Z,45.23
2019-03-22T03:19:37.157Z,45.00
2019-03-22T03:22:05.862Z,44.20
2019-03-22T03:24:34.483Z,47.00
2019-03-22T03:27:03.102Z,44.07
2019-03-22T03:29:31.702Z,42.73
2019-03-22T03:32:00.335Z,42.90
2019-03-22T03:34:28.890Z,43.80
2019-03-22T03:36:58.984Z,43.20
2019-03-22T03:39:29.108Z,43.43
2019-03-22T03:41:57.789Z,41.67
2019-03-22T03:44:26.573Z,41.30
2019-03-22T03:46:55.117Z,41.43
2019-03-22T03:49:23.722Z,41.60
2019-03-22T03:51:52.237Z,41.67
2019-03-22T03:54:20.774Z,41.33
2019-03-22T03:56:49.321Z,39.97
2019-03-22T03:59:17.984Z,39.30
2019-03-22T04:01:46.562Z,39.23
2019-03-22T04:04:15.081Z,40.77
2019-03-22T04:06:43.631Z,38.33
2019-03-22T04:09:12.170Z,40.27
2019-03-22T04:11:40.721Z,39.27
2019-03-22T04:14:09.295Z,37.67
2019-03-22T04:16:37.854Z,39.93
2019-03-22T04:19:06.563Z,37.73
2019-03-22T04:21:35.133Z,36.90
2019-03-22T04:24:03.682Z,35.80
2019-03-22T04:26:32.310Z,39.63
2019-03-22T04:29:07.558Z,35.43
2019-03-22T04:31:31.214Z,37.27
2019-03-22T04:33:59.768Z,37.17
2019-03-22T04:36:28.321Z,37.40
2019-03-22T04:38:56.861Z,35.97
2019-03-22T04:41:25.477Z,36.83
2019-03-22T04:43:54.118Z,34.70
2019-03-22T04:46:23.602Z,35.13
2019-03-22T04:48:53.014Z,33.97
2019-03-22T04:51:22.025Z,34.07
2019-03-22T04:53:53.506Z,35.50
2019-03-22T04:56:22.685Z,35.20
2019-03-22T04:58:51.722Z,35.67
2019-03-22T05:01:23.713Z,35.47
2019-03-22T05:03:53.121Z,35.10
2019-03-22T05:06:22.409Z,35.60
2019-03-22T05:08:52.497Z,35.23
2019-03-22T05:11:21.609Z,33.77
2019-03-22T05:13:53.521Z,33.80
2019-03-22T05:16:23.110Z,34.50
2019-03-22T05:18:52.785Z,34.37
2019-03-22T05:21:24.214Z,32.90
2019-03-22T05:23:55.892Z,32.07
2019-03-22T05:26:27.779Z,33.77
2019-03-22T05:28:56.690Z,34.03
2019-03-22T05:31:28.322Z,33.53
2019-03-22T05:33:56.861Z,33.37
2019-03-22T05:36:25.429Z,32.10
2019-03-22T05:38:53.906Z,33.80
2019-03-22T05:41:22.446Z,33.90
2019-03-22T05:43:50.955Z,32.97
2019-03-22T05:46:19.493Z,31.10
2019-03-22T05:48:48.033Z,33.33
2019-03-22T05:51:16.530Z,32.13
2019-03-22T05:53:45.066Z,33.10
2019-03-22T05:56:13.612Z,34.47
2019-03-22T05:58:42.178Z,31.27
2019-03-22T06:01:10.789Z,33.00
2019-03-22T06:03:39.339Z,31.90
2019-03-22T06:06:07.836Z,32.03
2019-03-22T06:08:36.378Z,31.67
2019-03-22T06:11:04.991Z,32.33
2019-03-22T06:13:33.633Z,31.83
2019-03-22T06:16:02.182Z,31.67
2019-03-22T06:18:30.653Z,29.43
2019-03-22T06:20:59.285Z,32.17
2019-03-22T06:23:27.768Z,30.83
2019-03-22T06:25:56.308Z,29.67
2019-03-22T06:28:24.888Z,31.97
2019-03-22T06:30:53.437Z,31.13
2019-03-22T06:33:22.770Z,30.53
2019-03-22T06:35:51.349Z,29.87
2019-03-22T06:38:19.962Z,30.17
2019-03-22T06:40:48.497Z,30.87
2019-03-22T06:43:17.069Z,30.03
2019-03-22T06:45:45.610Z,30.23
2019-03-22T06:48:14.159Z,30.53
2019-03-22T06:50:42.950Z,29.33
2019-03-22T06:53:11.499Z,28.10
2019-03-22T06:55:40.109Z,30.77
2019-03-22T06:58:08.683Z,27.43
2019-03-22T07:00:37.153Z,28.97
2019-03-22T07:03:05.773Z,28.83
2019-03-22T07:05:34.273Z,28.93
2019-03-22T07:08:02.746Z,29.43
2019-03-22T07:10:31.289Z,29.13
2019-03-22T07:12:59.955Z,28.60
2019-03-22T07:15:28.422Z,29.83
2019-03-22T07:17:56.965Z,29.53
2019-03-22T07:20:25.538Z,27.60
2019-03-22T07:22:54.220Z,27.27
2019-03-22T07:25:22.829Z,28.00
2019-03-22T07:27:52.871Z,28.87
2019-03-22T07:30:23.050Z,31.10
2019-03-22T07:32:51.612Z,29.73
2019-03-22T07:35:20.246Z,29.30
2019-03-22T07:37:48.792Z,27.90
2019-03-22T07:40:17.412Z,29.70
2019-03-22T07:42:45.985Z,27.60
2019-03-22T07:45:14.602Z,28.83
2019-03-22T07:47:43.142Z,27.03
2019-03-22T07:50:13.060Z,27.63
2019-03-22T07:52:43.143Z,27.37
2019-03-22T07:55:11.930Z,26.47
2019-03-22T07:57:40.517Z,25.37
2019-03-22T08:00:10.982Z,25.80
2019-03-22T08:02:39.606Z,25.17
2019-03-22T08:05:08.636Z,26.27
2019-03-22T08:07:37.255Z,23.90
2019-03-22T08:10:07.758Z,25.07
2019-03-22T08:12:36.414Z,24.90
2019-03-22T08:15:08.359Z,24.40
2019-03-22T08:17:36.538Z,21.90
2019-03-22T08:20:07.355Z,22.83
2019-03-22T08:22:36.200Z,21.27
2019-03-22T08:25:05.246Z,22.40
2019-03-22T08:27:33.839Z,21.03
2019-03-22T08:30:02.450Z,21.43
2019-03-22T08:32:31.089Z,21.90
2019-03-22T08:35:00.483Z,21.63
2019-03-22T08:37:29.036Z,22.07
2019-03-22T08:39:57.573Z,19.63
2019-03-22T08:42:26.164Z,21.37
2019-03-22T08:44:54.813Z,21.90
2019-03-22T08:47:33.286Z,20.70
2019-03-22T08:49:53.643Z,21.90
2019-03-22T08:52:22.214Z,21.03
2019-03-22T08:54:50.754Z,21.83
2019-03-22T08:57:19.342Z,20.80
2019-03-22T08:59:47.900Z,22.23
2019-03-22T09:02:16.438Z,21.27
2019-03-22T09:04:45.011Z,19.17
2019-03-22T09:07:13.649Z,19.40
2019-03-22T09:09:42.177Z,19.37
2019-03-22T09:12:10.876Z,20.33
2019-03-22T09:14:39.395Z,18.30
2019-03-22T09:17:07.970Z,19.10
2019-03-22T09:19:36.607Z,17.63
2019-03-22T09:22:05.179Z,18.50
2019-03-22T09:24:39.093Z,19.20
2019-03-22T09:27:04.079Z,15.83
2019-03-22T09:29:32.676Z,16.23
2019-03-22T09:32:01.335Z,15.33
2019-03-22T09:34:33.912Z,16.37
2019-03-22T09:37:00.185Z,17.27
2019-03-22T09:39:28.856Z,17.13
2019-03-22T09:41:57.678Z,15.97
2019-03-22T09:44:28.181Z,17.07
2019-03-22T09:46:56.602Z,17.37
2019-03-22T09:49:25.188Z,15.23
2019-03-22T09:51:55.197Z,17.00
2019-03-22T09:54:24.161Z,15.80
2019-03-22T09:56:52.763Z,15.93
2019-03-22T09:59:22.366Z,16.80
2019-03-22T10:01:51.094Z,16.73
2019-03-22T10:04:19.622Z,16.70
2019-03-22T10:06:48.178Z,18.77
2019-03-22T10:09:16.767Z,16.70
2019-03-22T10:11:45.376Z,16.67
2019-03-22T10:14:13.940Z,14.77
2019-03-22T10:16:42.601Z,14.50
2019-03-22T10:19:11.140Z,16.03
2019-03-22T10:21:39.749Z,16.77
2019-03-22T10:24:08.447Z,16.60
2019-03-22T10:26:37.097Z,16.60
2019-03-22T10:29:07.057Z,17.70
2019-03-22T10:31:37.302Z,17.43
2019-03-22T10:34:06.289Z,17.13
2019-03-22T10:36:35.322Z,16.90
2019-03-22T10:39:05.562Z,17.40
2019-03-22T10:41:34.264Z,18.00
2019-03-22T10:44:02.835Z,17.17
2019-03-22T10:46:31.377Z,18.03
2019-03-22T10:49:00.026Z,17.53
2019-03-22T10:51:28.713Z,17.27
2019-03-22T10:53:57.274Z,17.57
2019-03-22T10:56:25.924Z,17.53
2019-03-22T10:58:54.547Z,17.57
2019-03-22T11:01:23.185Z,16.93
2019-03-22T11:03:51.842Z,17.70
2019-03-22T11:06:26.149Z,16.43
2019-03-22T11:08:51.683Z,17.07
2019-03-22T11:11:20.235Z,16.10
2019-03-22T11:13:48.920Z,16.60
2019-03-22T11:16:17.670Z,16.83
2019-03-22T11:18:46.209Z,15.87
2019-03-22T11:21:14.757Z,16.00
2019-03-22T11:23:43.342Z,15.57
2019-03-22T11:26:11.893Z,16.33
2019-03-22T11:28:40.445Z,16.73
2019-03-22T11:31:09.098Z,16.67
2019-03-22T11:33:37.796Z,16.23
2019-03-22T11:36:06.410Z,15.00
2019-03-22T11:38:34.938Z,14.40
2019-03-22T11:41:03.666Z,15.17
2019-03-22T11:43:32.363Z,14.50
2019-03-22T11:46:00.914Z,14.77
2019-03-22T11:48:29.580Z,15.23
2019-03-22T11:50:58.124Z,15.07
2019-03-22T11:53:26.674Z,14.33
2019-03-22T11:55:55.325Z,14.30
2019-03-22T11:58:23.870Z,15.43
2019-03-22T12:00:52.499Z,13.40
2019-03-22T12:03:21.114Z,13.73
2019-03-22T12:05:49.663Z,13.13
2019-03-22T12:08:18.303Z,13.67
2019-03-22T12:10:46.923Z,14.30
2019-03-22T12:13:15.478Z,14.10
2019-03-22T12:15:44.027Z,14.07
2019-03-22T12:18:12.746Z,13.40
2019-03-22T12:20:41.361Z,14.07
2019-03-22T12:23:09.981Z,14.07
2019-03-22T12:25:38.614Z,13.77
2019-03-22T12:28:07.235Z,13.90
2019-03-22T12:30:35.853Z,13.67
2019-03-22T12:33:04.595Z,13.70
2019-03-22T12:35:33.283Z,13.87
2019-03-22T12:38:02.050Z,13.20
2019-03-22T12:40:30.697Z,14.23
2019-03-22T12:42:59.310Z,14.30
2019-03-22T12:45:32.053Z,14.23
2019-03-22T12:48:02.697Z,13.50
2019-03-22T12:50:31.390Z,14.00
2019-03-22T12:53:00.086Z,14.57
2019-03-22T12:55:28.743Z,14.20
2019-03-22T12:57:59.372Z,13.60
2019-03-22T13:00:27.790Z,14.67
2019-03-22T13:02:57.337Z,15.80
2019-03-22T13:05:26.026Z,15.27
2019-03-22T13:07:54.501Z,14.87
2019-03-22T13:10:27.962Z,15.40
2019-03-22T13:12:56.654Z,17.40
2019-03-22T13:15:25.206Z,17.73
2019-03-22T13:17:55.822Z,18.63
2019-03-22T13:20:24.434Z,18.93
2019-03-22T13:22:52.907Z,19.00
2019-03-22T13:25:21.537Z,17.97
2019-03-22T13:27:50.143Z,17.37
2019-03-22T13:30:30.616Z,16.90
2019-03-22T13:32:59.599Z,17.50
2019-03-22T13:35:28.215Z,17.97
2019-03-22T13:37:56.864Z,17.77
2019-03-22T13:43:08.802Z,16.60
2019-03-22T13:45:38.926Z,17.13
2019-03-22T13:48:07.546Z,17.20
2019-03-22T13:50:37.666Z,17.60
2019-03-22T13:53:06.286Z,18.00
2019-03-22T13:55:34.917Z,18.53
2019-03-22T13:58:03.602Z,18.53
2019-03-22T14:00:32.322Z,18.47
2019-03-22T14:03:02.843Z,18.57
2019-03-22T14:05:31.141Z,18.97
2019-03-22T14:07:59.705Z,19.27
2019-03-22T14:10:36.374Z,17.50
2019-03-22T14:13:06.499Z,17.30
2019-03-22T14:15:36.562Z,17.70
2019-03-22T14:18:06.257Z,16.23
2019-03-22T14:20:34.897Z,17.67
2019-03-22T14:23:03.581Z,16.53
2019-03-22T14:25:32.176Z,16.37
2019-03-22T14:28:00.782Z,16.50
2019-03-22T14:30:29.469Z,15.63
2019-03-22T14:32:57.945Z,16.13
2019-03-22T14:35:28.440Z,16.50
2019-03-22T14:37:56.928Z,14.53
2019-03-22T14:40:25.722Z,14.57
2019-03-22T14:42:54.478Z,14.27
2019-03-22T14:45:23.571Z,14.53
2019-03-22T14:47:52.079Z,13.73
2019-03-22T14:50:20.894Z,14.77
2019-03-22T14:52:49.590Z,13.93
2019-03-22T14:55:18.306Z,14.97
2019-03-22T14:57:50.160Z,15.83
2019-03-22T15:00:17.179Z,15.77
2019-03-22T15:02:45.854Z,15.00
2019-03-22T15:05:14.510Z,15.50
2019-03-22T15:07:43.118Z,15.47
2019-03-22T15:10:13.117Z,16.13
2019-03-22T15:12:41.856Z,16.67
2019-03-22T15:15:29.101Z,16.60
2019-03-22T15:18:05.253Z,16.07
2019-03-22T15:20:53.615Z,15.33
2019-03-22T15:23:39.104Z,16.17
2019-03-22T15:26:09.426Z,16.63
2019-03-22T15:28:54.289Z,17.07
2019-03-22T15:31:33.154Z,17.80
2019-03-22T15:34:20.081Z,17.30
2019-03-22T15:37:05.493Z,17.60
2019-03-22T15:39:35.696Z,17.33
2019-03-22T15:42:04.418Z,17.33
2019-03-22T15:44:32.966Z,18.20
2019-03-22T15:47:01.671Z,18.80
2019-03-22T15:49:30.327Z,18.20
2019-03-22T15:51:59.010Z,19.40
2019-03-22T15:54:27.688Z,19.97
2019-03-22T15:56:56.267Z,20.27
2019-03-22T15:59:24.810Z,20.53
2019-03-22T16:01:53.280Z,23.50
2019-03-22T16:04:21.921Z,27.63
2019-03-22T16:06:50.544Z,28.43
2019-03-22T16:09:19.233Z,29.37
2019-03-22T16:11:47.887Z,27.87
2019-03-22T16:14:16.462Z,31.87
2019-03-22T16:16:45.083Z,30.33
2019-03-22T16:19:13.721Z,29.83
2019-03-22T16:21:42.195Z,33.63
2019-03-22T16:24:10.815Z,33.70
2019-03-22T16:26:39.399Z,33.37
2019-03-22T16:29:08.097Z,29.77
2019-03-22T16:31:36.701Z,30.07
2019-03-22T16:34:05.412Z,34.23
2019-03-22T16:36:33.946Z,34.30
2019-03-22T16:39:02.560Z,35.50
2019-03-22T16:41:31.113Z,32.80
2019-03-22T16:43:59.921Z,35.07
2019-03-22T16:46:28.475Z,34.13
2019-03-22T16:48:57.021Z,34.63
2019-03-22T16:51:25.568Z,39.30
2019-03-22T16:53:54.118Z,38.93
2019-03-22T16:56:22.757Z,37.30
2019-03-22T16:58:51.301Z,38.20
2019-03-22T17:01:19.849Z,41.27
2019-03-22T17:03:48.382Z,45.77
2019-03-22T17:06:16.998Z,51.90
2019-03-22T17:08:45.677Z,56.60
2019-03-22T17:11:14.257Z,48.43
2019-03-22T17:13:42.737Z,43.03
2019-03-22T17:16:11.279Z,43.57
2019-03-22T17:18:39.915Z,44.07
2019-03-22T17:21:08.479Z,45.47
2019-03-22T17:23:37.022Z,50.90
2019-03-22T17:26:05.808Z,55.67
2019-03-22T17:28:34.500Z,62.13
2019-03-22T17:31:03.045Z,59.63
2019-03-22T17:33:31.536Z,56.43
2019-03-22T17:36:00.222Z,57.70
2019-03-22T17:38:28.912Z,76.10
2019-03-22T17:40:57.513Z,59.30
2019-03-22T17:43:26.057Z,61.10
2019-03-22T17:45:54.745Z,62.77
2019-03-22T17:48:23.321Z,58.40
2019-03-22T17:50:51.868Z,54.90
2019-03-22T17:53:20.415Z,57.40
2019-03-22T17:55:48.989Z,57.03
2019-03-22T17:58:17.468Z,63.83
2019-03-22T18:00:47.029Z,71.27
2019-03-22T18:03:15.741Z,73.13
2019-03-22T18:05:44.441Z,96.20
2019-03-22T18:08:12.986Z,95.53
2019-03-22T18:10:41.496Z,86.93
2019-03-22T18:13:09.970Z,84.07
2019-03-22T18:15:38.526Z,84.73
2019-03-22T18:18:07.181Z,81.03
2019-03-22T18:20:35.721Z,87.87
2019-03-22T18:23:04.270Z,116.20
2019-03-22T18:25:32.908Z,120.30
2019-03-22T18:28:01.398Z,107.10
2019-03-22T18:30:29.946Z,102.07
2019-03-22T18:32:58.518Z,136.17
2019-03-22T18:35:27.071Z,122.33
2019-03-22T18:37:55.684Z,111.03
2019-03-22T18:40:24.365Z,124.57
2019-03-22T18:42:52.896Z,125.97
2019-03-22T18:45:21.443Z,119.90
2019-03-22T18:47:50.054Z,110.17
2019-03-22T18:50:18.766Z,176.90
2019-03-22T18:52:47.453Z,304.87
2019-03-22T18:55:16.049Z,395.37
2019-03-22T18:57:44.592Z,346.20
2019-03-22T19:00:17.685Z,281.90
2019-03-22T19:02:46.662Z,260.07
2019-03-22T19:05:15.613Z,228.97
2019-03-22T19:07:44.804Z,213.07
2019-03-22T19:10:26.439Z,204.57
2019-03-22T19:12:55.051Z,210.27
2019-03-22T19:15:24.081Z,245.40
2019-03-22T19:17:52.600Z,226.10
2019-03-22T19:20:21.096Z,269.37
2019-03-22T19:22:49.726Z,259.53
2019-03-22T19:25:18.670Z,276.43
2019-03-22T19:27:47.298Z,298.53
2019-03-22T19:30:16.711Z,326.67
2019-03-22T19:32:45.446Z,354.30
2019-03-22T19:35:14.204Z,358.87
2019-03-22T19:37:43.060Z,285.23
2019-03-22T19:40:16.151Z,252.57
2019-03-22T19:42:44.878Z,234.97
2019-03-22T19:45:16.764Z,234.90
2019-03-22T19:47:47.304Z,204.93
2019-03-22T19:50:16.825Z,175.70
2019-03-22T19:52:45.518Z,146.50
2019-03-22T19:55:14.528Z,121.73
2019-03-22T19:57:43.213Z,106.00
2019-03-22T20:00:14.367Z,96.03
2019-03-22T20:02:43.001Z,103.47
2019-03-22T20:05:11.785Z,109.00
2019-03-22T20:07:40.517Z,100.07
2019-03-22T20:10:14.101Z,100.43
2019-03-22T20:12:42.743Z,92.50
2019-03-22T20:15:30.637Z,83.30
2019-03-22T20:17:59.373Z,82.67
2019-03-22T20:20:27.991Z,79.53
2019-03-22T20:22:56.571Z,78.77
2019-03-22T20:25:25.191Z,77.93
2019-03-22T20:27:53.824Z,73.77
2019-03-22T20:30:22.525Z,71.87
2019-03-22T20:32:51.145Z,71.23
2019-03-22T20:35:19.809Z,67.00
2019-03-22T20:37:50.025Z,68.97
2019-03-22T20:40:19.658Z,72.67
2019-03-22T20:42:48.297Z,68.77
2019-03-22T20:45:23.977Z,67.57
2019-03-22T20:47:47.330Z,63.47
2019-03-22T20:50:16.219Z,67.63
2019-03-22T20:52:44.773Z,70.27
2019-03-22T20:55:15.123Z,64.80
2019-03-22T20:57:43.733Z,60.70
2019-03-22T21:00:17.941Z,69.67
2019-03-22T21:02:48.285Z,70.73
2019-03-22T21:05:26.502Z,80.67
2019-03-22T21:07:47.019Z,65.17
2019-03-22T21:10:15.759Z,52.50
2019-03-22T21:12:44.239Z,55.77
2019-03-22T21:15:23.520Z,58.70
2019-03-22T21:17:43.836Z,65.40
2019-03-22T21:20:12.778Z,48.93
2019-03-22T21:22:41.353Z,40.13
2019-03-22T21:25:11.149Z,35.93
2019-03-22T21:27:39.714Z,37.47
2019-03-22T21:30:11.371Z,42.30
2019-03-22T21:32:45.074Z,40.67
2019-03-22T21:35:21.574Z,34.93
2019-03-22T21:37:40.932Z,34.03
2019-03-22T21:40:11.047Z,33.80
2019-03-22T21:42:39.725Z,35.53
2019-03-22T21:45:09.468Z,34.97
2019-03-22T21:47:39.117Z,33.87
2019-03-22T21:50:09.023Z,33.60
2019-03-22T21:52:37.581Z,34.13
2019-03-22T21:55:10.198Z,33.33
2019-03-22T21:57:38.909Z,32.43
2019-03-22T22:00:09.800Z,32.83
2019-03-22T22:02:39.050Z,31.73
2019-03-22T22:05:08.329Z,32.17
2019-03-22T22:07:37.008Z,32.00
2019-03-22T22:10:07.221Z,29.83
2019-03-22T22:12:35.905Z,26.57
2019-03-22T22:15:08.993Z,28.67
2019-03-22T22:17:39.316Z,27.80
2019-03-22T22:20:08.501Z,26.70
2019-03-22T22:22:36.983Z,26.43
2019-03-22T22:25:06.801Z,26.97
2019-03-22T22:27:35.507Z,27.77
2019-03-22T22:30:12.016Z,27.87
2019-03-22T22:32:40.574Z,31.53
2019-03-22T22:35:09.548Z,25.53
2019-03-22T22:37:38.357Z,27.83
2019-03-22T22:40:10.473Z,28.27
2019-03-22T22:42:39.098Z,30.33
2019-03-22T22:45:09.608Z,28.27
2019-03-22T22:47:38.280Z,26.47
2019-03-22T22:50:08.397Z,25.80
2019-03-22T22:52:37.097Z,30.67
2019-03-22T22:55:06.777Z,38.93
2019-03-22T22:57:35.393Z,31.83
2019-03-22T23:00:06.730Z,29.53
2019-03-22T23:02:35.260Z,29.33
2019-03-22T23:05:04.778Z,34.23
2019-03-22T23:07:33.458Z,38.63
2019-03-22T23:10:02.069Z,31.73
2019-03-22T23:12:30.770Z,32.90
2019-03-22T23:14:59.345Z,31.07
2019-03-22T23:17:27.893Z,31.73
2019-03-22T23:19:56.428Z,44.63
2019-03-22T23:22:24.984Z,64.73
2019-03-22T23:24:53.532Z,67.90
2019-03-22T23:27:22.078Z,63.63
2019-03-22T23:29:50.617Z,46.70
2019-03-22T23:32:19.161Z,34.33
2019-03-22T23:34:47.643Z,32.93
2019-03-22T23:37:16.300Z,30.23
2019-03-22T23:39:44.834Z,29.70
2019-03-22T23:42:16.357Z,30.83
2019-03-22T23:44:44.853Z,30.93
2019-03-22T23:47:13.338Z,32.03
2019-03-22T23:49:41.940Z,32.03
2019-03-22T23:52:10.458Z,33.43
2019-03-22T23:54:38.925Z,32.63
2019-03-22T23:57:07.483Z,36.87
2019-03-22T23:59:36.046Z,36.53
